Darstellungsparameter: Aktuell verwendete Einstellungen:
Skalierung der Graphiken ... ?
xyx+y,   Skalierungsfaktor:      Skalierung: Modus: x, Faktor: 1
Darstellungszeitraum ... ?
Vom - - bis: - -   Zeitraum: 15.02.2019 - 15.02.2019
Min/Max/Avg-Anzeige ... ?
Zeige MMA aktuell
Zeige MMA Monat
Zeige MMA alles
Zeige --A aktuell
Zeige --A Monat
Zeige --A alles
Keine MMA-Anzeige
MMA:
Keine MMA-Graphiken
MMA-Basis: 15.02.2019 - 15.02.2019
Quicknavigation für Darstellung... ?
Tage:      1T, 2T, 3T, 5T -1T -2T -3T -5T +1T +2T +3T +5T
Wochen: 1W, 2W, 3W -1W -2W -3W +1W +2W +3W
Monate: 1M, 3M, 6M -1M -3M -6M +1M +3M +6M
Jahre:    1J, 3J, 5J, 10J -1J -3J -5J -10J +1J +3J +5J +10J
Nutze für die Darstellung ... ?
Originaldaten oder Mittelwerte auf ...
Stundenbasis Tagesbasis Wochenbasis
Monatsbasis Jahresbasis      Datenbasis: Original-Daten
Darstellen als:
Statistik (Auto) Statistik J:M      Darstellung:
Zur Graphik,    zurück zur Übersicht aller Sensoren.
 
Tabellarische Datenbersicht: ?
 
Sensor: Nr:Datum:Temp:Feuchte:Taupunkt:
Aussen-T/F 1 15-02-2019 00:00:00 -0.3 C 93 % -1.29 C
2 15-02-2019 00:05:00 -0.4 C 93 % -1.39 C
3 15-02-2019 00:10:00 -0.4 C 94 % -1.25 C
4 15-02-2019 00:15:00 -0.4 C 94 % -1.25 C
5 15-02-2019 00:20:00 -0.4 C 94 % -1.25 C
6 15-02-2019 00:25:00 -0.6 C 93 % -1.59 C
7 15-02-2019 00:30:00 -0.6 C 94 % -1.44 C
8 15-02-2019 00:35:00 -0.7 C 94 % -1.54 C
9 15-02-2019 00:40:00 -0.7 C 94 % -1.54 C
10 15-02-2019 00:45:00 -0.7 C 94 % -1.54 C
11 15-02-2019 00:50:00 -0.7 C 94 % -1.54 C
12 15-02-2019 00:55:00 -0.7 C 94 % -1.54 C
13 15-02-2019 01:00:00 -0.7 C 94 % -1.54 C
14 15-02-2019 01:05:00 -0.8 C 94 % -1.64 C
15 15-02-2019 01:10:00 -0.8 C 94 % -1.64 C
16 15-02-2019 01:15:00 -0.8 C 94 % -1.64 C
17 15-02-2019 01:20:00 -0.9 C 94 % -1.74 C
18 15-02-2019 01:25:00 -1 C 94 % -1.84 C
19 15-02-2019 01:30:00 -1 C 94 % -1.84 C
20 15-02-2019 01:35:00 -1 C 94 % -1.84 C
21 15-02-2019 01:40:00 -1 C 94 % -1.84 C
22 15-02-2019 01:45:00 -1 C 95 % -1.7 C
23 15-02-2019 01:50:00 -1.1 C 95 % -1.8 C
24 15-02-2019 01:55:00 -1.1 C 95 % -1.8 C
25 15-02-2019 02:00:00 -1.1 C 95 % -1.8 C
Sensor: Nr:Datum:Temp:Feuchte:Taupunkt:
Aussen-T/F 26 15-02-2019 02:05:00 -1 C 95 % -1.7 C
27 15-02-2019 02:10:00 -1 C 95 % -1.7 C
28 15-02-2019 02:15:00 -1.1 C 94 % -1.94 C
29 15-02-2019 02:20:00 -1.1 C 94 % -1.94 C
30 15-02-2019 02:25:00 -1.1 C 95 % -1.8 C
31 15-02-2019 02:30:00 -1.1 C 95 % -1.8 C
32 15-02-2019 02:35:00 -1.2 C 95 % -1.9 C
33 15-02-2019 02:40:00 -1.2 C 95 % -1.9 C
34 15-02-2019 02:45:00 -1.3 C 95 % -2 C
35 15-02-2019 02:50:00 -1.3 C 95 % -2 C
36 15-02-2019 02:55:00 -1.3 C 95 % -2 C
37 15-02-2019 03:00:00 -1.3 C 95 % -2 C
38 15-02-2019 03:05:00 -1.3 C 95 % -2 C
39 15-02-2019 03:10:00 -1.4 C 95 % -2.1 C
40 15-02-2019 03:15:00 -1.4 C 95 % -2.1 C
41 15-02-2019 03:20:00 -1.4 C 95 % -2.1 C
42 15-02-2019 03:25:00 -1.4 C 95 % -2.1 C
43 15-02-2019 03:30:00 -1.5 C 95 % -2.19 C
44 15-02-2019 03:35:00 -1.5 C 95 % -2.19 C
45 15-02-2019 03:40:00 -1.5 C 95 % -2.19 C
46 15-02-2019 03:45:00 -1.5 C 95 % -2.19 C
47 15-02-2019 03:50:00 -1.4 C 95 % -2.1 C
48 15-02-2019 03:55:00 -1.3 C 95 % -2 C
49 15-02-2019 04:00:00 -1.2 C 95 % -1.9 C
50 15-02-2019 04:05:00 -1.2 C 95 % -1.9 C
Sensor: Nr:Datum:Temp:Feuchte:Taupunkt:
Aussen-T/F 51 15-02-2019 04:10:00 -1.2 C 95 % -1.9 C
52 15-02-2019 04:15:00 -1.3 C 95 % -2 C
53 15-02-2019 04:20:00 -1.4 C 95 % -2.1 C
54 15-02-2019 04:25:00 -1.5 C 95 % -2.19 C
55 15-02-2019 04:30:00 -1.6 C 95 % -2.29 C
56 15-02-2019 04:35:00 -1.7 C 95 % -2.39 C
57 15-02-2019 04:40:00 -1.8 C 95 % -2.49 C
58 15-02-2019 04:45:00 -1.8 C 95 % -2.49 C
59 15-02-2019 04:50:00 -1.7 C 95 % -2.39 C
60 15-02-2019 04:55:00 -1.7 C 95 % -2.39 C
61 15-02-2019 05:00:00 -1.8 C 95 % -2.49 C
62 15-02-2019 05:05:00 -1.8 C 95 % -2.49 C
63 15-02-2019 05:10:00 -1.9 C 95 % -2.59 C
64 15-02-2019 05:15:00 -1.9 C 95 % -2.59 C
65 15-02-2019 05:20:00 -1.8 C 95 % -2.49 C
66 15-02-2019 05:25:00 -1.9 C 95 % -2.59 C
67 15-02-2019 05:30:00 -1.9 C 95 % -2.59 C
68 15-02-2019 05:35:00 -1.9 C 95 % -2.59 C
69 15-02-2019 05:40:00 -1.9 C 95 % -2.59 C
70 15-02-2019 05:45:00 -1.9 C 95 % -2.59 C
71 15-02-2019 05:50:00 -1.9 C 95 % -2.59 C
72 15-02-2019 05:55:00 -2 C 95 % -2.69 C
73 15-02-2019 06:00:00 -2 C 95 % -2.69 C
74 15-02-2019 06:05:00 -2.1 C 95 % -2.79 C
75 15-02-2019 06:10:00 -2.1 C 95 % -2.79 C
Sensor: Nr:Datum:Temp:Feuchte:Taupunkt:
Aussen-T/F 76 15-02-2019 06:15:00 -2.1 C 95 % -2.79 C
77 15-02-2019 06:20:00 -2.2 C 95 % -2.89 C
78 15-02-2019 06:25:00 -2.2 C 95 % -2.89 C
79 15-02-2019 06:30:00 -2.1 C 95 % -2.79 C
80 15-02-2019 06:35:00 -2.1 C 95 % -2.79 C
81 15-02-2019 06:40:00 -2 C 95 % -2.69 C
82 15-02-2019 06:45:00 -1.9 C 96 % -2.45 C
83 15-02-2019 06:50:00 -2 C 96 % -2.55 C
84 15-02-2019 06:55:00 -2.1 C 95 % -2.79 C
85 15-02-2019 07:00:00 -2.2 C 95 % -2.89 C
86 15-02-2019 07:05:00 -2.2 C 95 % -2.89 C
87 15-02-2019 07:10:00 -2.3 C 95 % -2.99 C
88 15-02-2019 07:15:00 -2.3 C 95 % -2.99 C
89 15-02-2019 07:20:00 -2.4 C 95 % -3.09 C
90 15-02-2019 07:25:00 -2.4 C 95 % -3.09 C
91 15-02-2019 07:30:00 -2.5 C 95 % -3.19 C
92 15-02-2019 07:35:00 -2.5 C 95 % -3.19 C
93 15-02-2019 07:40:00 -2.5 C 95 % -3.19 C
94 15-02-2019 07:45:00 -2.5 C 95 % -3.19 C
95 15-02-2019 07:50:00 -2.5 C 95 % -3.19 C
96 15-02-2019 07:55:00 -2.5 C 95 % -3.19 C
97 15-02-2019 08:00:00 -2.4 C 96 % -2.95 C
98 15-02-2019 08:05:00 -2.4 C 96 % -2.95 C
99 15-02-2019 08:10:00 -2.3 C 96 % -2.85 C
100 15-02-2019 08:15:00 -2.2 C 96 % -2.75 C
Sensor: Nr:Datum:Temp:Feuchte:Taupunkt:
Aussen-T/F 101 15-02-2019 08:20:00 -2.2 C 96 % -2.75 C
102 15-02-2019 08:25:00 -2.1 C 96 % -2.65 C
103 15-02-2019 08:30:00 -2.1 C 96 % -2.65 C
104 15-02-2019 08:35:00 -2.1 C 96 % -2.65 C
105 15-02-2019 08:40:00 -2.1 C 96 % -2.65 C
106 15-02-2019 08:45:00 -2.1 C 96 % -2.65 C
107 15-02-2019 08:50:00 -2.2 C 96 % -2.75 C
108 15-02-2019 08:55:00 -2.2 C 96 % -2.75 C
109 15-02-2019 09:00:00 -2.1 C 96 % -2.65 C
110 15-02-2019 09:05:00 -2.1 C 96 % -2.65 C
111 15-02-2019 09:10:00 -2 C 96 % -2.55 C
112 15-02-2019 09:15:00 -1.9 C 96 % -2.45 C
113 15-02-2019 09:20:00 -1.8 C 96 % -2.35 C
114 15-02-2019 09:25:00 -1.8 C 96 % -2.35 C
115 15-02-2019 09:30:00 -1.7 C 96 % -2.25 C
116 15-02-2019 09:35:00 -1.5 C 96 % -2.05 C
117 15-02-2019 09:40:00 -1.5 C 96 % -2.05 C
118 15-02-2019 09:45:00 -1.4 C 96 % -1.95 C
119 15-02-2019 09:50:00 -1.3 C 96 % -1.85 C
120 15-02-2019 09:55:00 -1.2 C 96 % -1.75 C
121 15-02-2019 10:00:00 -1.2 C 96 % -1.75 C
122 15-02-2019 10:05:00 -1.1 C 96 % -1.66 C
123 15-02-2019 10:10:00 -1 C 96 % -1.56 C
124 15-02-2019 10:15:00 -0.9 C 96 % -1.46 C
125 15-02-2019 10:20:00 -0.9 C 96 % -1.46 C
Sensor: Nr:Datum:Temp:Feuchte:Taupunkt:
Aussen-T/F 126 15-02-2019 10:25:00 -0.8 C 96 % -1.36 C
127 15-02-2019 10:30:00 -0.7 C 96 % -1.26 C
128 15-02-2019 10:35:00 -0.6 C 96 % -1.16 C
129 15-02-2019 10:40:00 -0.5 C 96 % -1.06 C
130 15-02-2019 10:45:00 -0.3 C 97 % -0.72 C
131 15-02-2019 10:50:00 -0.3 C 97 % -0.72 C
132 15-02-2019 10:55:00 -0.1 C 96 % -0.66 C
133 15-02-2019 11:00:00 0.1 C 97 % -0.32 C
134 15-02-2019 11:05:00 0.3 C 97 % -0.12 C
135 15-02-2019 11:10:00 0.6 C 97 % 0.18 C
136 15-02-2019 11:15:00 0.8 C 97 % 0.38 C
137 15-02-2019 11:20:00 1 C 97 % 0.58 C
138 15-02-2019 11:25:00 1.2 C 97 % 0.78 C
139 15-02-2019 11:30:00 1.4 C 97 % 0.98 C
140 15-02-2019 11:35:00 1.7 C 97 % 1.28 C
141 15-02-2019 11:40:00 1.8 C 97 % 1.38 C
142 15-02-2019 11:45:00 2 C 97 % 1.58 C
143 15-02-2019 11:50:00 2.1 C 97 % 1.67 C
144 15-02-2019 11:55:00 2.2 C 97 % 1.77 C
145 15-02-2019 12:00:00 2.2 C 97 % 1.77 C
146 15-02-2019 12:05:00 2.3 C 97 % 1.87 C
147 15-02-2019 12:10:00 2.6 C 97 % 2.17 C
148 15-02-2019 12:15:00 2.7 C 97 % 2.27 C
149 15-02-2019 12:20:00 2.9 C 97 % 2.47 C
150 15-02-2019 12:25:00 3.2 C 97 % 2.77 C
Sensor: Nr:Datum:Temp:Feuchte:Taupunkt:
Aussen-T/F 151 15-02-2019 12:30:00 3.6 C 97 % 3.17 C
152 15-02-2019 12:35:00 3.8 C 97 % 3.37 C
153 15-02-2019 12:40:00 4.1 C 97 % 3.67 C
154 15-02-2019 12:45:00 4.3 C 96 % 3.72 C
155 15-02-2019 12:50:00 4.6 C 96 % 4.02 C
156 15-02-2019 12:55:00 4.7 C 95 % 3.97 C
157 15-02-2019 13:00:00 4.8 C 95 % 4.07 C
158 15-02-2019 13:05:00 4.9 C 94 % 4.02 C
159 15-02-2019 13:10:00 5.1 C 94 % 4.22 C
160 15-02-2019 13:15:00 5.3 C 94 % 4.41 C
161 15-02-2019 13:20:00 5.5 C 93 % 4.46 C
162 15-02-2019 13:25:00 5.7 C 93 % 4.66 C
163 15-02-2019 13:30:00 5.9 C 92 % 4.7 C
164 15-02-2019 13:35:00 6.2 C 91 % 4.84 C
165 15-02-2019 13:40:00 6.5 C 90 % 4.98 C
166 15-02-2019 13:45:00 6.8 C 89 % 5.12 C
167 15-02-2019 13:50:00 7.1 C 88 % 5.25 C
168 15-02-2019 13:55:00 7.4 C 86 % 5.22 C
169 15-02-2019 14:00:00 7.7 C 85 % 5.34 C
170 15-02-2019 14:05:00 7.8 C 84 % 5.27 C
171 15-02-2019 14:10:00 8.1 C 84 % 5.56 C
172 15-02-2019 14:15:00 8.2 C 83 % 5.49 C
173 15-02-2019 14:20:00 8.3 C 82 % 5.41 C
174 15-02-2019 14:25:00 8.3 C 82 % 5.41 C
175 15-02-2019 14:30:00 8.3 C 82 % 5.41 C
Sensor: Nr:Datum:Temp:Feuchte:Taupunkt:
Aussen-T/F 176 15-02-2019 14:35:00 8.3 C 82 % 5.41 C
177 15-02-2019 14:40:00 8.4 C 82 % 5.51 C
178 15-02-2019 14:45:00 8.4 C 82 % 5.51 C
179 15-02-2019 14:50:00 8.6 C 82 % 5.71 C
180 15-02-2019 14:55:00 8.7 C 82 % 5.8 C
181 15-02-2019 15:00:00 8.8 C 81 % 5.72 C
182 15-02-2019 15:05:00 8.9 C 80 % 5.64 C
183 15-02-2019 15:10:00 9.2 C 80 % 5.94 C
184 15-02-2019 15:15:00 9.3 C 79 % 5.85 C
185 15-02-2019 15:20:00 9.5 C 79 % 6.05 C
186 15-02-2019 15:25:00 9.6 C 78 % 5.96 C
187 15-02-2019 15:30:00 9.8 C 77 % 5.97 C
188 15-02-2019 15:35:00 9.8 C 77 % 5.97 C
189 15-02-2019 15:40:00 9.9 C 76 % 5.87 C
190 15-02-2019 15:45:00 9.9 C 75 % 5.68 C
191 15-02-2019 15:50:00 10.1 C 75 % 5.88 C
192 15-02-2019 15:55:00 10.2 C 72 % 5.39 C
193 15-02-2019 16:00:00 10.4 C 71 % 5.38 C
194 15-02-2019 16:05:00 10.8 C 64 % 4.27 C
195 15-02-2019 16:10:00 11.2 C 68 % 5.52 C
196 15-02-2019 16:15:00 11.3 C 68 % 5.62 C
197 15-02-2019 16:20:00 11.1 C 67 % 5.21 C
198 15-02-2019 16:25:00 10.9 C 68 % 5.23 C
199 15-02-2019 16:30:00 10.8 C 69 % 5.35 C
200 15-02-2019 16:35:00 10.6 C 70 % 5.36 C
Sensor: Nr:Datum:Temp:Feuchte:Taupunkt:
Aussen-T/F 201 15-02-2019 16:40:00 10.3 C 70 % 5.08 C
202 15-02-2019 16:45:00 10.2 C 70 % 4.98 C
203 15-02-2019 16:50:00 10.2 C 71 % 5.18 C
204 15-02-2019 16:55:00 10.1 C 71 % 5.09 C
205 15-02-2019 17:00:00 10 C 71 % 4.99 C
206 15-02-2019 17:05:00 9.9 C 71 % 4.9 C
207 15-02-2019 17:10:00 9.9 C 71 % 4.9 C
208 15-02-2019 17:15:00 9.8 C 71 % 4.8 C
209 15-02-2019 17:20:00 9.7 C 71 % 4.7 C
210 15-02-2019 17:25:00 9.6 C 71 % 4.61 C
211 15-02-2019 17:30:00 9.4 C 72 % 4.62 C
212 15-02-2019 17:35:00 9.3 C 71 % 4.32 C
213 15-02-2019 17:40:00 9 C 72 % 4.23 C
214 15-02-2019 17:45:00 8.8 C 73 % 4.24 C
215 15-02-2019 17:50:00 8.6 C 73 % 4.04 C
216 15-02-2019 17:55:00 8.3 C 73 % 3.75 C
217 15-02-2019 18:00:00 8.1 C 74 % 3.75 C
218 15-02-2019 18:05:00 7.8 C 74 % 3.46 C
219 15-02-2019 18:10:00 7.7 C 75 % 3.56 C
220 15-02-2019 18:15:00 7.6 C 75 % 3.46 C
221 15-02-2019 18:20:00 7.4 C 76 % 3.45 C
222 15-02-2019 18:25:00 7.3 C 76 % 3.36 C
223 15-02-2019 18:30:00 7.1 C 76 % 3.16 C
224 15-02-2019 18:35:00 7 C 77 % 3.25 C
225 15-02-2019 18:40:00 6.9 C 77 % 3.16 C
Sensor: Nr:Datum:Temp:Feuchte:Taupunkt:
Aussen-T/F 226 15-02-2019 18:45:00 6.9 C 77 % 3.16 C
227 15-02-2019 18:50:00 6.8 C 77 % 3.06 C
228 15-02-2019 18:55:00 6.7 C 78 % 3.14 C
229 15-02-2019 19:00:00 6.6 C 78 % 3.05 C
230 15-02-2019 19:05:00 6.6 C 78 % 3.05 C
231 15-02-2019 19:10:00 6.4 C 79 % 3.03 C
232 15-02-2019 19:15:00 6.3 C 79 % 2.93 C
233 15-02-2019 19:20:00 6.3 C 80 % 3.11 C
234 15-02-2019 19:25:00 6.3 C 80 % 3.11 C
235 15-02-2019 19:30:00 6.2 C 80 % 3.01 C
236 15-02-2019 19:35:00 6.2 C 81 % 3.19 C
237 15-02-2019 19:40:00 6.1 C 80 % 2.92 C
238 15-02-2019 19:45:00 5.9 C 80 % 2.72 C
239 15-02-2019 19:50:00 5.7 C 81 % 2.7 C
240 15-02-2019 19:55:00 5.4 C 81 % 2.41 C
241 15-02-2019 20:00:00 5.2 C 82 % 2.39 C
242 15-02-2019 20:05:00 5.1 C 84 % 2.63 C
243 15-02-2019 20:10:00 4.9 C 84 % 2.43 C
244 15-02-2019 20:15:00 4.8 C 84 % 2.33 C
245 15-02-2019 20:20:00 4.7 C 84 % 2.23 C
246 15-02-2019 20:25:00 4.6 C 84 % 2.14 C
247 15-02-2019 20:30:00 4.4 C 84 % 1.94 C
248 15-02-2019 20:35:00 4.2 C 85 % 1.91 C
249 15-02-2019 20:40:00 4.1 C 85 % 1.81 C
250 15-02-2019 20:45:00 3.9 C 86 % 1.78 C
Sensor: Nr:Datum:Temp:Feuchte:Taupunkt:
Aussen-T/F 251 15-02-2019 20:50:00 3.9 C 85 % 1.61 C
252 15-02-2019 20:55:00 3.8 C 87 % 1.84 C
253 15-02-2019 21:00:00 3.7 C 87 % 1.74 C
254 15-02-2019 21:05:00 3.6 C 88 % 1.8 C
255 15-02-2019 21:10:00 3.4 C 87 % 1.45 C
256 15-02-2019 21:15:00 3.3 C 88 % 1.51 C
257 15-02-2019 21:20:00 3.3 C 89 % 1.67 C
258 15-02-2019 21:25:00 3.3 C 89 % 1.67 C
259 15-02-2019 21:30:00 3.2 C 88 % 1.41 C
260 15-02-2019 21:35:00 3.1 C 88 % 1.31 C
261 15-02-2019 21:40:00 2.9 C 88 % 1.11 C
262 15-02-2019 21:45:00 2.8 C 89 % 1.17 C
263 15-02-2019 21:50:00 2.7 C 89 % 1.07 C
264 15-02-2019 21:55:00 2.6 C 89 % 0.97 C
265 15-02-2019 22:00:00 2.4 C 89 % 0.78 C
266 15-02-2019 22:05:00 2.4 C 90 % 0.93 C
267 15-02-2019 22:10:00 2.3 C 89 % 0.68 C
268 15-02-2019 22:15:00 2.1 C 90 % 0.64 C
269 15-02-2019 22:20:00 1.9 C 90 % 0.44 C
270 15-02-2019 22:25:00 1.8 C 90 % 0.34 C
271 15-02-2019 22:30:00 1.7 C 90 % 0.24 C
272 15-02-2019 22:35:00 1.7 C 91 % 0.39 C
273 15-02-2019 22:40:00 1.6 C 91 % 0.29 C
274 15-02-2019 22:45:00 1.5 C 91 % 0.19 C
275 15-02-2019 22:50:00 1.4 C 91 % 0.1 C
Sensor: Nr:Datum:Temp:Feuchte:Taupunkt:
Aussen-T/F 276 15-02-2019 22:55:00 1.4 C 92 % 0.25 C
277 15-02-2019 23:00:00 1.4 C 92 % 0.25 C
278 15-02-2019 23:05:00 1.4 C 92 % 0.25 C
279 15-02-2019 23:10:00 1.4 C 92 % 0.25 C
280 15-02-2019 23:15:00 1.4 C 92 % 0.25 C
281 15-02-2019 23:20:00 1.3 C 92 % 0.15 C
282 15-02-2019 23:25:00 1.3 C 92 % 0.15 C
283 15-02-2019 23:30:00 1.2 C 92 % 0.05 C
284 15-02-2019 23:35:00 1.2 C 92 % 0.05 C
285 15-02-2019 23:40:00 1.2 C 93 % 0.2 C
286 15-02-2019 23:45:00 1.2 C 92 % 0.05 C
287 15-02-2019 23:50:00 1 C 92 % -0.15 C
288 15-02-2019 23:55:00 0.8 C 92 % -0.35 C

Legende:
   Min
   Max


Maximal/Minimal-Werte vom 15.02.2019 - 15.02.2019

Sensor Min Max Avg
Temp
(Aussen-T/F)
-2.5 °C
15-02-2019  07:30:00
11.3 °C
15-02-2019  16:15:00
2.34 °C
Feuchte
(Aussen-T/F)
64 %
15-02-2019  16:05:00
97 %
15-02-2019  10:45:00
89.29 %
Taupunkt
(Aussen-T/F)
-3.19 C
15-02-2019  07:30:00
6.05 C
15-02-2019  15:20:00
0.65 C

Die Daten stammen von einer Davis Vantage Pro 2 Wetter-Station und werden unter Linux mit der Software wview2wettercgi und aufbereitet. Alle Angaben erfolgen ohne Gewähr für ihre Vollständigkeit oder Richtigkeit.
Kontakt: Rainer Krienke krienke@uni-koblenz.de . Meine Webseiten an der Uni Koblenz oder privat.
Version: $Revision: 0.78 $